Time;durP1;ratioP1;P1;durP2;ratioP2;P2;SDS_P1;SDS_P2;PMS_P1;PMS_P2;Temp;Humidity;BMP_temperature;BMP_pressure;BME280_temperature;BME280_humidity;BME280_pressure;Samples;Min_cycle;Max_cycle;Signal;HPM_P1;HPM_P2
2022/12/06 00:01:55;;;;;;;0.60;0.60;;;;;;;4.77;94.07;95581.78;4339019;32;20273;-61
2022/12/06 00:04:20;;;;;;;0.63;0.40;;;;;;;4.74;93.54;95576.22;4326895;32;20321;-62
2022/12/06 00:06:47;;;;;;;0.73;0.73;;;;;;;4.84;93.12;95578.94;4376458;32;20288;-62
2022/12/06 00:09:23;;;;;;;1.00;1.00;;;;;;;4.84;93.11;95579.72;4361781;32;20181;-62
2022/12/06 00:11:50;;;;;;;1.00;1.00;;;;;;;4.71;93.76;95584.59;4347229;32;20296;-62
2022/12/06 00:14:16;;;;;;;0.47;0.47;;;;;;;4.78;93.65;95583.34;4362263;32;20364;-62
2022/12/06 00:16:43;;;;;;;1.03;0.63;;;;;;;5.01;92.85;95586.69;4372179;32;20403;-62
2022/12/06 00:19:12;;;;;;;0.83;0.83;;;;;;;4.82;93.29;95596.78;4371600;32;20307;-62
2022/12/06 00:21:38;;;;;;;1.13;1.03;;;;;;;4.71;93.19;95598.53;4351699;32;20277;-62
2022/12/06 00:24:12;;;;;;;0.50;0.50;;;;;;;4.66;93.89;95592.44;4374173;32;20286;-62
2022/12/06 00:26:42;;;;;;;0.50;0.50;;;;;;;4.79;93.76;95597.28;4360579;32;20291;-62
2022/12/06 00:29:13;;;;;;;0.70;0.70;;;;;;;4.78;93.06;95595.72;4365108;32;20277;-61
2022/12/06 00:31:39;;;;;;;1.07;1.07;;;;;;;5.01;92.55;95594.56;4348839;32;20278;-62
2022/12/06 00:34:06;;;;;;;1.33;1.23;;;;;;;4.90;92.14;95595.53;4330830;32;20322;-62
2022/12/06 00:36:35;;;;;;;0.80;0.80;;;;;;;5.00;91.88;95592.97;4334601;32;20228;-62
2022/12/06 00:39:04;;;;;;;0.57;0.57;;;;;;;4.59;93.14;95599.72;4366644;32;20321;-62
2022/12/06 00:41:32;;;;;;;0.83;0.83;;;;;;;4.79;92.77;95589.38;4370301;32;20334;-62
2022/12/06 00:43:59;;;;;;;2.23;0.80;;;;;;;4.59;93.45;95589.22;4346799;32;20284;-62
2022/12/06 00:46:29;;;;;;;0.90;0.90;;;;;;;4.55;93.57;95588.94;4364602;32;20343;-62
2022/12/06 00:48:56;;;;;;;0.57;0.57;;;;;;;4.62;93.30;95599.22;4338862;32;20291;-62
2022/12/06 00:51:24;;;;;;;0.43;0.43;;;;;;;4.71;92.38;95588.03;4363384;32;20333;-62
2022/12/06 00:53:50;;;;;;;1.23;1.20;;;;;;;4.87;92.16;95588.16;4371955;32;20265;-62
2022/12/06 00:56:16;;;;;;;0.67;0.67;;;;;;;4.63;92.39;95588.47;4348714;32;20375;-61
2022/12/06 00:58:43;;;;;;;0.73;0.73;;;;;;;4.59;92.86;95586.56;4372794;32;20331;-61
2022/12/06 01:01:32;;;;;;;0.83;0.83;;;;;;;4.63;92.77;95585.03;4341253;32;20308;-61
2022/12/06 01:03:59;;;;;;;0.50;0.50;;;;;;;4.62;92.89;95586.88;4362828;32;20295;-62
2022/12/06 01:06:27;;;;;;;1.30;1.20;;;;;;;4.45;93.85;95586.19;4386802;32;20288;-62
2022/12/06 01:08:54;;;;;;;1.53;0.97;;;;;;;4.66;93.22;95585.34;4335840;32;20276;-62
2022/12/06 01:11:21;;;;;;;1.33;0.80;;;;;;;4.64;93.17;95576.12;4369390;32;20315;-62
2022/12/06 01:13:47;;;;;;;0.80;0.80;;;;;;;4.66;93.12;95574.84;4339164;32;20359;-62
2022/12/06 01:16:19;;;;;;;0.90;0.90;;;;;;;4.55;93.05;95569.75;4349788;32;20403;-62
2022/12/06 01:18:46;;;;;;;1.13;1.03;;;;;;;4.34;93.83;95569.56;4354019;32;20298;-62
2022/12/06 01:21:15;;;;;;;0.37;0.37;;;;;;;4.52;93.67;95568.41;4339643;32;20324;-62
2022/12/06 01:23:41;;;;;;;0.87;0.87;;;;;;;4.58;93.48;95566.59;4354629;32;20277;-62
2022/12/06 01:26:39;;;;;;;0.40;0.40;;;;;;;4.64;92.50;95563.00;4369014;32;20371;-62
2022/12/06 01:29:06;;;;;;;0.90;0.90;;;;;;;4.61;92.54;95571.38;4355511;32;20284;-61
2022/12/06 01:31:36;;;;;;;0.80;0.80;;;;;;;4.44;93.09;95553.88;4373687;32;20317;-62
2022/12/06 01:34:03;;;;;;;1.07;1.07;;;;;;;4.67;92.51;95558.03;4356440;32;20312;-62
2022/12/06 01:36:29;;;;;;;0.77;0.77;;;;;;;4.78;91.99;95559.69;4356463;32;20292;-62
2022/12/06 01:38:57;;;;;;;0.73;0.73;;;;;;;4.46;92.49;95561.50;4329230;32;20304;-62
2022/12/06 01:41:26;;;;;;;1.10;1.10;;;;;;;4.55;92.69;95560.03;4353343;32;20207;-62
2022/12/06 01:43:51;;;;;;;0.73;0.73;;;;;;;4.66;92.37;95547.78;4363765;32;20291;-62
2022/12/06 01:46:31;;;;;;;0.80;0.80;;;;;;;4.69;92.00;95550.69;4377584;32;20287;-62
2022/12/06 01:49:07;;;;;;;0.60;0.60;;;;;;;4.63;91.94;95556.16;4361008;32;20232;-62
2022/12/06 01:51:34;;;;;;;0.50;0.50;;;;;;;4.36;92.30;95554.34;4365460;32;20299;-62
2022/12/06 01:54:05;;;;;;;1.70;1.27;;;;;;;4.45;92.37;95552.84;4362917;32;20337;-62
2022/12/06 01:56:32;;;;;;;0.97;0.97;;;;;;;4.68;91.16;95546.47;4364139;32;20288;-62
2022/12/06 01:58:59;;;;;;;0.73;0.73;;;;;;;4.55;91.33;95549.53;4365787;32;20284;-62
2022/12/06 02:01:28;;;;;;;1.23;1.23;;;;;;;4.44;91.83;95550.47;4360203;32;20277;-62
2022/12/06 02:03:57;;;;;;;1.27;1.23;;;;;;;4.36;92.21;95549.09;4375942;32;20309;-62
2022/12/06 02:06:23;;;;;;;1.63;1.53;;;;;;;4.60;91.71;95539.03;4359608;32;20285;-62
2022/12/06 02:08:52;;;;;;;1.27;1.17;;;;;;;4.53;91.58;95537.69;4347155;32;20382;-62
2022/12/06 02:11:19;;;;;;;1.10;1.10;;;;;;;4.51;91.77;95534.50;4338224;32;20193;-62
2022/12/06 02:13:48;;;;;;;0.83;0.83;;;;;;;4.59;90.95;95537.47;4348716;32;20311;-62
2022/12/06 02:16:32;;;;;;;1.07;0.97;;;;;;;4.45;91.70;95536.28;4360933;32;20272;-62
2022/12/06 02:19:18;;;;;;;0.77;0.77;;;;;;;4.58;90.93;95528.00;4364465;32;20308;-62
2022/12/06 02:22:03;;;;;;;2.23;0.93;;;;;;;4.61;90.74;95527.50;4373960;32;20325;-62
2022/12/06 02:24:37;;;;;;;0.60;0.60;;;;;;;4.41;91.54;95524.69;4333588;32;20295;-62
2022/12/06 02:27:46;;;;;;;0.87;0.87;;;;;;;4.21;92.51;95529.75;4383120;32;20350;-62
2022/12/06 02:30:43;;;;;;;1.80;1.70;;;;;;;4.39;92.62;95526.78;4300373;32;20321;-61
2022/12/06 02:33:19;;;;;;;1.50;1.50;;;;;;;4.31;92.69;95519.37;4377168;32;20299;-62
2022/12/06 02:36:17;;;;;;;1.07;1.00;;;;;;;4.23;92.95;95519.81;4370981;32;20292;-62
2022/12/06 02:39:11;;;;;;;0.53;0.53;;;;;;;4.24;92.99;95513.50;4345058;32;20327;-62
2022/12/06 02:42:03;;;;;;;0.80;0.80;;;;;;;4.31;92.58;95514.13;4314228;32;20281;-62
2022/12/06 02:44:53;;;;;;;0.77;0.77;;;;;;;4.46;91.75;95511.63;4324500;32;20289;-62
2022/12/06 02:47:27;;;;;;;0.73;0.73;;;;;;;4.47;91.44;95510.56;4341208;32;20326;-62
2022/12/06 02:49:55;;;;;;;1.40;1.40;;;;;;;4.35;91.56;95507.34;4366120;32;20319;-62
2022/12/06 02:52:25;;;;;;;1.60;1.50;;;;;;;4.35;91.66;95509.94;4366134;32;20281;-61
2022/12/06 02:54:55;;;;;;;1.63;1.53;;;;;;;4.29;92.21;95511.72;4380828;32;20295;-62
2022/12/06 02:57:33;;;;;;;1.50;1.50;;;;;;;4.24;92.37;95505.63;4336387;32;20308;-62
2022/12/06 02:59:59;;;;;;;3.67;1.27;;;;;;;4.07;92.62;95505.75;4361569;32;20280;-62
2022/12/06 03:02:25;;;;;;;1.57;1.57;;;;;;;4.03;93.11;95508.06;4381788;32;20280;-62
2022/12/06 03:05:14;;;;;;;2.30;2.20;;;;;;;4.00;93.35;95508.56;4366147;32;20197;-62
2022/12/06 03:07:47;;;;;;;1.43;1.33;;;;;;;4.18;92.53;95514.50;4363093;32;20272;-62
2022/12/06 03:10:37;;;;;;;1.13;1.13;;;;;;;4.16;92.70;95506.09;4363603;32;20343;-62
2022/12/06 03:13:17;;;;;;;1.40;1.40;;;;;;;4.34;92.00;95503.91;4382919;32;20340;-62
2022/12/06 03:16:25;;;;;;;1.93;1.83;;;;;;;4.13;91.92;95504.75;4375057;32;20338;-62
2022/12/06 03:19:13;;;;;;;0.70;0.70;;;;;;;4.33;91.48;95506.78;4366727;32;20285;-62
2022/12/06 03:21:45;;;;;;;1.37;1.37;;;;;;;4.18;91.66;95504.00;4373950;32;20280;-62
2022/12/06 03:24:13;;;;;;;1.47;1.40;;;;;;;4.12;91.39;95501.34;4359272;32;20321;-62
2022/12/06 03:26:43;;;;;;;1.63;1.53;;;;;;;4.29;90.90;95489.94;4378601;32;20343;-62
2022/12/06 03:29:14;;;;;;;1.17;1.17;;;;;;;4.34;91.10;95484.75;4364498;32;20283;-62
2022/12/06 03:31:40;;;;;;;1.43;1.33;;;;;;;4.13;91.57;95486.38;4356597;32;20297;-61
2022/12/06 03:34:15;;;;;;;1.50;0.80;;;;;;;4.02;91.71;95490.72;4337869;32;20299;-62
2022/12/06 03:36:43;;;;;;;1.23;1.23;;;;;;;4.11;91.02;95498.97;4363666;32;20299;-62
2022/12/06 03:39:15;;;;;;;1.60;1.60;;;;;;;3.99;91.23;95493.84;4361219;32;20288;-62
2022/12/06 03:41:54;;;;;;;1.43;1.30;;;;;;;4.11;91.59;95499.75;4349378;32;20269;-62
2022/12/06 03:44:20;;;;;;;1.30;1.30;;;;;;;4.07;91.73;95490.78;4352925;32;20268;-61
2022/12/06 03:46:49;;;;;;;1.13;1.13;;;;;;;4.05;91.37;95495.50;4366844;32;22185;-61
2022/12/06 03:49:19;;;;;;;0.57;0.57;;;;;;;4.03;91.12;95497.56;4305575;32;20295;-62
2022/12/06 03:51:45;;;;;;;1.07;1.07;;;;;;;3.85;91.77;95494.50;4335872;32;20284;-62
2022/12/06 03:54:12;;;;;;;1.00;1.00;;;;;;;4.00;91.38;95492.00;4375543;32;20300;-62
2022/12/06 03:56:38;;;;;;;2.30;2.10;;;;;;;3.85;92.15;95499.72;4359481;32;20298;-62
2022/12/06 03:59:06;;;;;;;1.67;1.67;;;;;;;3.94;91.92;95499.06;4364373;32;20293;-61
2022/12/06 04:01:32;;;;;;;1.50;1.43;;;;;;;3.97;91.75;95493.28;4353087;32;20192;-62
2022/12/06 04:03:59;;;;;;;1.07;1.07;;;;;;;3.89;92.16;95493.75;4377094;32;20348;-62
2022/12/06 04:06:25;;;;;;;1.07;1.07;;;;;;;3.98;91.86;95494.88;4389181;32;20313;-62
2022/12/06 04:08:51;;;;;;;1.53;1.53;;;;;;;3.91;91.95;95494.31;4316935;32;20285;-62
2022/12/06 04:11:16;;;;;;;1.20;1.20;;;;;;;4.05;91.65;95498.13;4359077;32;20204;-62
2022/12/06 04:13:43;;;;;;;1.10;1.10;;;;;;;3.96;91.30;95489.09;4363710;32;20223;-62
2022/12/06 04:18:53;;;;;;;0.83;0.83;;;;;;;3.98;91.11;95488.84;4391705;32;20295;-62
2022/12/06 04:24:01;;;;;;;1.27;1.27;;;;;;;3.71;92.32;95489.63;4354197;32;20263;-62
2022/12/06 04:26:26;;;;;;;2.17;2.07;;;;;;;3.95;91.72;95490.13;4366567;32;20304;-62
2022/12/06 04:39:55;;;;;;;1.43;1.43;;;;;;;3.90;91.54;95484.84;4363632;32;20295;-62
2022/12/06 04:45:08;;;;;;;0.77;0.77;;;;;;;3.80;91.58;95477.66;4373701;32;20271;-62
2022/12/06 04:47:35;;;;;;;0.90;0.90;;;;;;;3.68;91.92;95473.59;4371138;32;20313;-62
2022/12/06 04:50:00;;;;;;;0.73;0.73;;;;;;;3.53;92.49;95476.03;4390464;32;20284;-62
2022/12/06 04:52:25;;;;;;;1.40;1.40;;;;;;;3.68;92.65;95468.34;4366919;32;20290;-62
2022/12/06 04:54:50;;;;;;;1.83;1.73;;;;;;;3.83;91.33;95465.87;4376845;32;20189;-62
2022/12/06 04:57:17;;;;;;;1.60;0.93;;;;;;;3.95;90.80;95468.38;4345924;32;20256;-62
2022/12/06 04:59:45;;;;;;;3.07;2.43;;;;;;;3.97;90.67;95472.31;4348282;32;20252;-62
2022/12/06 05:02:13;;;;;;;1.40;1.23;;;;;;;3.89;90.52;95470.12;4361678;32;20347;-62
2022/12/06 05:04:39;;;;;;;1.10;1.10;;;;;;;3.82;91.26;95469.53;4386483;32;20271;-62
2022/12/06 05:07:05;;;;;;;1.03;1.03;;;;;;;3.83;91.10;95475.56;4349939;32;20272;-62
2022/12/06 05:09:32;;;;;;;2.07;1.53;;;;;;;3.81;91.42;95473.19;4362857;32;20241;-61
2022/12/06 05:11:59;;;;;;;1.87;1.77;;;;;;;3.66;91.63;95479.09;4367359;32;20281;-62
2022/12/06 05:14:24;;;;;;;0.77;0.77;;;;;;;3.63;91.62;95471.69;4377746;32;20283;-62
2022/12/06 05:16:50;;;;;;;1.67;1.67;;;;;;;3.74;91.27;95472.63;4362620;32;20360;-62
2022/12/06 05:19:16;;;;;;;0.90;0.90;;;;;;;3.71;91.25;95470.47;4363767;32;20359;-61
2022/12/06 05:21:41;;;;;;;1.00;1.00;;;;;;;3.79;91.40;95470.03;4364459;32;20248;-61
2022/12/06 05:24:08;;;;;;;1.20;1.20;;;;;;;3.58;92.00;95468.22;4367959;32;20189;-61
2022/12/06 05:26:34;;;;;;;1.47;1.47;;;;;;;3.48;92.35;95468.13;4368295;32;20203;-61
2022/12/06 05:29:01;;;;;;;1.90;1.80;;;;;;;3.69;92.02;95469.94;4335663;32;20311;-61
2022/12/06 05:31:27;;;;;;;1.07;0.83;;;;;;;3.41;92.82;95465.66;4372986;32;20283;-62
2022/12/06 05:33:52;;;;;;;1.47;1.37;;;;;;;3.50;92.80;95473.91;4365977;32;20277;-62
2022/12/06 05:36:23;;;;;;;1.30;1.30;;;;;;;3.59;92.53;95481.09;4361201;32;20222;-62
2022/12/06 05:38:50;;;;;;;1.47;1.47;;;;;;;3.59;92.01;95475.03;4340766;32;20256;-62
2022/12/06 05:41:17;;;;;;;1.73;1.63;;;;;;;3.63;91.88;95478.78;4351295;32;20360;-62
2022/12/06 05:43:42;;;;;;;2.37;1.37;;;;;;;3.71;91.78;95480.97;4386018;32;20334;-62
2022/12/06 05:46:08;;;;;;;2.50;2.27;;;;;;;3.64;91.70;95482.97;4373073;32;20276;-62
2022/12/06 05:48:33;;;;;;;1.97;1.87;;;;;;;3.67;91.51;95479.88;4383725;32;20196;-62
2022/12/06 05:50:59;;;;;;;1.00;1.00;;;;;;;3.71;91.56;95478.34;4351357;32;20199;-63
2022/12/06 05:53:25;;;;;;;2.67;2.57;;;;;;;3.64;91.77;95483.78;4361617;32;20211;-63
2022/12/06 05:55:51;;;;;;;1.47;1.47;;;;;;;3.47;92.21;95482.25;4341823;32;20198;-63
2022/12/06 05:58:18;;;;;;;1.60;1.60;;;;;;;3.44;92.89;95473.84;4348616;32;20300;-63
2022/12/06 06:00:48;;;;;;;2.93;2.60;;;;;;;3.56;92.25;95472.91;4360719;32;20271;-62
2022/12/06 06:03:16;;;;;;;1.97;1.87;;;;;;;3.70;91.99;95476.75;4354013;32;20287;-62
2022/12/06 06:05:48;;;;;;;1.33;1.33;;;;;;;3.56;91.55;95480.78;4359927;32;20289;-62
2022/12/06 06:08:15;;;;;;;1.77;1.77;;;;;;;3.66;91.71;95473.03;4379486;32;20273;-62
2022/12/06 06:10:41;;;;;;;1.97;1.90;;;;;;;3.80;90.59;95466.34;4371438;32;20280;-62
2022/12/06 06:13:07;;;;;;;2.50;2.40;;;;;;;3.86;90.19;95472.47;4377143;32;20334;-62
2022/12/06 06:15:33;;;;;;;2.00;1.80;;;;;;;3.86;90.33;95470.62;4367796;32;20328;-62
2022/12/06 06:17:59;;;;;;;1.40;1.40;;;;;;;3.78;90.62;95468.44;4326682;32;20448;-62
2022/12/06 06:20:24;;;;;;;2.20;2.10;;;;;;;3.60;91.26;95466.94;4357931;32;20243;-62
2022/12/06 06:22:49;;;;;;;2.30;2.20;;;;;;;3.85;90.50;95474.28;4366492;32;20216;-62
2022/12/06 06:25:19;;;;;;;1.83;1.77;;;;;;;3.60;91.10;95471.38;4378954;32;20188;-61
2022/12/06 06:27:46;;;;;;;2.50;2.40;;;;;;;3.70;90.92;95471.50;4378225;32;20208;-61
2022/12/06 06:30:12;;;;;;;2.37;2.13;;;;;;;3.69;90.53;95464.69;4367051;32;20261;-62
2022/12/06 06:32:38;;;;;;;1.73;1.63;;;;;;;3.66;91.22;95475.66;4364572;32;20349;-62
2022/12/06 06:35:05;;;;;;;2.40;2.30;;;;;;;3.56;91.24;95480.78;4370735;32;20304;-62
2022/12/06 06:37:31;;;;;;;2.17;2.07;;;;;;;3.69;90.95;95475.19;4390775;32;20189;-62
2022/12/06 06:39:57;;;;;;;1.87;1.77;;;;;;;3.62;91.27;95475.34;4396083;32;20358;-62
2022/12/06 06:42:23;;;;;;;1.67;1.67;;;;;;;3.58;91.42;95483.94;4361977;32;20280;-62
2022/12/06 06:44:48;;;;;;;2.20;2.10;;;;;;;3.60;91.59;95481.87;4367891;32;20190;-63
2022/12/06 06:47:15;;;;;;;3.73;3.00;;;;;;;3.87;90.50;95481.91;4373828;32;20244;-62
2022/12/06 06:49:40;;;;;;;3.47;3.27;;;;;;;3.87;90.75;95481.91;4354209;32;20219;-63
2022/12/06 06:52:05;;;;;;;2.50;2.40;;;;;;;4.01;90.49;95477.84;4367569;32;20281;-63
2022/12/06 06:54:32;;;;;;;2.67;2.53;;;;;;;3.99;89.76;95488.59;4347935;32;20255;-63
2022/12/06 06:56:58;;;;;;;2.17;2.07;;;;;;;3.81;90.02;95475.81;4363271;32;20234;-63
2022/12/06 06:59:24;;;;;;;2.00;1.90;;;;;;;3.74;90.70;95472.63;4356583;32;20281;-63
2022/12/06 07:01:51;;;;;;;2.50;2.40;;;;;;;3.73;90.42;95471.81;4341259;32;20285;-63
2022/12/06 07:04:17;;;;;;;2.53;2.43;;;;;;;3.89;90.65;95480.63;4375829;32;20291;-63
2022/12/06 07:06:43;;;;;;;1.67;1.67;;;;;;;3.87;90.57;95482.72;4329044;32;20281;-63
2022/12/06 07:09:10;;;;;;;2.17;2.07;;;;;;;3.79;90.69;95485.75;4344495;32;20204;-63
2022/12/06 07:11:37;;;;;;;2.70;2.50;;;;;;;3.85;90.92;95476.91;4360998;32;20351;-63
2022/12/06 07:14:03;;;;;;;2.43;2.33;;;;;;;4.05;90.22;95484.19;4355578;32;20184;-63
2022/12/06 07:16:28;;;;;;;2.47;2.37;;;;;;;4.00;89.70;95477.06;4357576;32;20352;-63
2022/12/06 07:18:55;;;;;;;2.93;2.73;;;;;;;3.94;90.29;95482.53;4347618;32;20197;-63
2022/12/06 07:21:24;;;;;;;3.23;2.90;;;;;;;4.00;90.07;95487.56;4349170;32;20205;-63
2022/12/06 07:23:50;;;;;;;3.40;2.23;;;;;;;3.87;90.35;95487.16;4367602;32;20326;-63
2022/12/06 07:26:19;;;;;;;2.00;1.90;;;;;;;3.91;90.43;95483.81;4361455;32;20270;-63
2022/12/06 07:28:50;;;;;;;3.43;3.13;;;;;;;3.94;90.39;95491.19;4369166;32;20206;-63
2022/12/06 07:31:25;;;;;;;2.37;2.17;;;;;;;4.07;90.09;95482.13;4367180;32;20281;-63
2022/12/06 07:33:53;;;;;;;1.47;1.47;;;;;;;4.07;90.00;95488.16;4349529;32;20362;-63
2022/12/06 07:36:21;;;;;;;2.40;2.30;;;;;;;3.98;89.99;95489.63;4334233;32;20363;-63
2022/12/06 07:38:55;;;;;;;2.30;2.20;;;;;;;4.00;90.04;95490.19;4331974;32;20346;-63
2022/12/06 07:46:56;;;;;;;2.40;2.30;;;;;;;9.57;100.00;95467.09;4335855;32;20303;-51
2022/12/06 07:49:22;;;;;;;1.67;1.67;;;;;;;9.34;87.59;95469.78;4363189;32;20276;-56
2022/12/06 07:51:49;;;;;;;1.40;1.40;;;;;;;10.44;77.07;95472.09;4353111;32;20250;-54
2022/12/06 07:54:16;;;;;;;2.57;2.37;;;;;;;11.03;70.79;95479.34;4395330;32;20285;-56
2022/12/06 07:56:44;;;;;;;2.07;1.97;;;;;;;11.41;67.06;95473.94;4364362;32;20277;-63
2022/12/06 07:59:12;;;;;;;5.40;3.17;;;;;;;10.89;61.06;95475.88;4362825;32;20222;-62
2022/12/06 08:01:37;;;;;;;2.00;1.90;;;;;;;9.24;64.53;95482.03;4337606;32;20201;-60
2022/12/06 08:04:05;;;;;;;2.90;2.70;;;;;;;7.64;70.92;95488.19;4371655;32;20228;-60
2022/12/06 08:06:34;;;;;;;2.60;2.50;;;;;;;6.92;74.18;95478.84;4361868;32;20184;-59
2022/12/06 08:08:59;;;;;;;3.47;2.43;;;;;;;6.28;77.08;95487.28;4358816;32;20280;-60
2022/12/06 08:11:27;;;;;;;2.43;2.33;;;;;;;5.56;80.21;95488.13;4375002;32;20291;-62
2022/12/06 08:13:53;;;;;;;3.27;2.97;;;;;;;5.28;82.00;95479.59;4375893;32;20192;-61
2022/12/06 08:16:22;;;;;;;2.47;2.27;;;;;;;5.29;82.26;95481.16;4360706;32;20382;-60
2022/12/06 08:18:49;;;;;;;2.50;2.23;;;;;;;5.14;83.51;95481.87;4372851;32;20180;-59
2022/12/06 08:21:15;;;;;;;2.83;2.57;;;;;;;4.89;84.38;95480.94;4359038;32;20375;-62
2022/12/06 08:23:41;;;;;;;3.30;3.10;;;;;;;4.88;84.93;95476.72;4371050;32;20313;-62
2022/12/06 08:26:11;;;;;;;1.40;1.37;;;;;;;4.98;85.27;95468.91;4352569;32;20281;-63
2022/12/06 08:28:42;;;;;;;2.63;2.53;;;;;;;4.76;85.89;95474.28;4365606;32;20203;-62
2022/12/06 08:31:25;;;;;;;0.83;0.83;;;;;;;4.78;86.48;95472.97;4357967;32;20303;-62
2022/12/06 08:33:50;;;;;;;1.90;1.80;;;;;;;5.02;86.34;95467.34;4345177;32;20330;-63
2022/12/06 08:36:20;;;;;;;2.00;1.90;;;;;;;5.35;85.46;95460.94;4358435;32;20352;-62
2022/12/06 08:38:46;;;;;;;3.10;2.50;;;;;;;5.50;85.38;95469.69;4381543;32;20211;-63
2022/12/06 08:43:57;;;;;;;1.53;1.53;;;;;;;5.51;85.44;95465.22;4353746;32;20325;-62
2022/12/06 08:46:24;;;;;;;1.03;1.03;;;;;;;5.40;84.90;95472.25;4363322;32;20277;-62
2022/12/06 08:48:51;;;;;;;1.73;1.57;;;;;;;5.32;85.80;95477.25;4370689;32;20329;-63
2022/12/06 08:51:17;;;;;;;2.07;1.97;;;;;;;5.36;85.41;95479.09;4385243;32;20408;-62
2022/12/06 08:53:43;;;;;;;1.57;1.47;;;;;;;5.33;85.41;95490.13;4382390;32;20297;-63
2022/12/06 08:56:09;;;;;;;1.87;1.77;;;;;;;5.51;84.40;95481.78;4333774;32;20180;-62
2022/12/06 08:58:35;;;;;;;1.77;1.67;;;;;;;5.32;85.08;95488.56;4337155;32;20200;-63
2022/12/06 09:01:00;;;;;;;2.13;2.03;;;;;;;5.36;84.52;95487.00;4369002;32;20276;-62
2022/12/06 09:03:26;;;;;;;1.60;1.60;;;;;;;5.06;85.19;95489.44;4358378;32;20184;-63
2022/12/06 09:05:51;;;;;;;1.87;1.83;;;;;;;5.29;85.37;95490.91;4348036;32;20231;-62
2022/12/06 09:08:16;;;;;;;1.20;1.10;;;;;;;5.18;85.58;95482.97;4366375;32;20294;-62
2022/12/06 09:10:42;;;;;;;2.60;2.43;;;;;;;5.29;85.86;95488.25;4355045;32;20270;-62
2022/12/06 09:13:08;;;;;;;1.80;1.70;;;;;;;5.78;84.25;95491.38;4368287;32;20210;-62
2022/12/06 09:15:39;;;;;;;1.27;1.27;;;;;;;5.71;83.87;95488.97;4355114;32;20274;-62
2022/12/06 09:18:04;;;;;;;1.53;1.43;;;;;;;5.67;83.80;95489.75;4351932;32;20218;-62
2022/12/06 09:20:31;;;;;;;1.03;1.03;;;;;;;5.70;84.26;95489.22;4359019;32;20292;-62
2022/12/06 09:22:58;;;;;;;1.97;1.87;;;;;;;5.82;83.26;95480.03;4369155;32;20220;-58
2022/12/06 09:25:25;;;;;;;1.87;1.77;;;;;;;5.57;84.58;95487.88;4381824;32;20276;-56
2022/12/06 09:27:51;;;;;;;1.07;1.07;;;;;;;5.61;84.79;95488.16;4369375;32;20281;-54
2022/12/06 09:30:18;;;;;;;2.17;2.07;;;;;;;5.70;83.54;95489.22;4365688;32;20348;-58
2022/12/06 09:32:44;;;;;;;1.80;1.70;;;;;;;6.01;83.39;95484.88;4355627;32;20278;-60
2022/12/06 09:35:09;;;;;;;2.13;2.03;;;;;;;5.64;83.67;95485.78;4344479;32;20349;-53
2022/12/06 09:37:35;;;;;;;1.67;1.57;;;;;;;5.53;84.50;95490.22;4367462;32;20193;-56
2022/12/06 09:40:01;;;;;;;1.73;1.63;;;;;;;5.77;83.85;95489.78;4371129;32;20206;-55
2022/12/06 09:42:53;;;;;;;1.13;1.13;;;;;;;5.95;83.12;95491.97;4363850;32;20223;-61
2022/12/06 09:45:35;;;;;;;1.23;1.23;;;;;;;6.06;82.29;95482.25;4376979;32;20384;-54
2022/12/06 09:48:10;;;;;;;1.37;1.27;;;;;;;6.15;81.93;95494.66;4345571;32;20281;-52
2022/12/06 09:51:07;;;;;;;1.83;1.73;;;;;;;6.33;81.30;95485.44;4351952;32;20281;-52
2022/12/06 09:54:11;;;;;;;1.23;1.23;;;;;;;6.47;80.39;95475.19;4363033;32;20283;-55
2022/12/06 09:56:46;;;;;;;1.73;1.67;;;;;;;5.99;82.06;95473.81;4352048;32;20299;-57
2022/12/06 09:59:20;;;;;;;1.20;1.20;;;;;;;6.36;81.07;95463.06;4350622;32;20368;-50
2022/12/06 10:02:20;;;;;;;1.20;1.20;;;;;;;6.71;78.77;95457.78;4344787;32;20378;-50
2022/12/06 10:05:06;;;;;;;1.60;1.60;;;;;;;6.92;78.05;95457.75;4374041;32;20271;-52
2022/12/06 10:07:56;;;;;;;1.10;1.10;;;;;;;6.29;80.31;95454.62;4333388;32;20317;-55
2022/12/06 10:10:49;;;;;;;1.43;1.40;;;;;;;6.55;80.15;95451.75;4380380;32;20303;-53
2022/12/06 10:13:58;;;;;;;1.17;1.17;;;;;;;6.66;78.95;95446.44;4290006;32;20302;-51
2022/12/06 10:17:14;;;;;;;1.57;1.47;;;;;;;6.53;79.30;95437.25;4359466;32;20289;-54
2022/12/06 10:19:55;;;;;;;1.30;1.30;;;;;;;6.79;78.50;95444.06;4343757;32;20288;-54
2022/12/06 10:22:40;;;;;;;1.80;0.63;;;;;;;6.85;79.31;95426.41;4353899;32;20314;-40
2022/12/06 10:25:15;;;;;;;1.53;1.43;;;;;;;10.63;100.00;95406.53;4371166;32;20280;-42
2022/12/06 10:27:55;;;;;;;1.50;1.40;;;;;;;12.10;89.97;95412.72;4341103;32;20185;-41
2022/12/06 10:30:22;;;;;;;1.07;1.03;;;;;;;13.57;77.31;95415.16;4362993;32;20261;-43
2022/12/06 10:33:06;;;;;;;1.93;1.67;;;;;;;14.36;69.21;95414.94;4356056;32;20216;-43
2022/12/06 10:35:55;;;;;;;1.77;1.67;;;;;;;14.50;61.24;95404.16;4365140;32;20261;-53
2022/12/06 10:38:37;;;;;;;2.27;1.10;;;;;;;12.59;55.37;95417.19;4366621;32;20189;-54
2022/12/06 10:41:25;;;;;;;0.90;0.90;;;;;;;11.03;59.17;95410.34;4318818;32;20211;-54
2022/12/06 10:44:25;;;;;;;1.73;1.63;;;;;;;9.68;63.44;95412.16;4368421;32;20204;-53
2022/12/06 10:47:30;;;;;;;1.33;1.33;;;;;;;8.43;68.58;95406.09;4370126;32;20224;-55
2022/12/06 10:50:27;;;;;;;1.20;1.20;;;;;;;7.10;74.64;95412.34;4372537;32;20188;-52
2022/12/06 10:53:03;;;;;;;1.50;1.50;;;;;;;7.41;74.59;95413.03;4360455;32;20192;-56
2022/12/06 10:55:30;;;;;;;1.57;1.53;;;;;;;7.24;74.36;95426.56;4360564;32;20235;-55
2022/12/06 10:58:27;;;;;;;1.40;1.30;;;;;;;6.66;77.04;95412.19;4369445;32;20207;-54
2022/12/06 11:00:59;;;;;;;1.20;1.10;;;;;;;7.02;75.23;95420.84;4325848;32;20223;-55
2022/12/06 11:03:45;;;;;;;1.83;1.73;;;;;;;6.85;76.15;95406.09;4366293;32;20330;-54
2022/12/06 11:06:44;;;;;;;1.57;1.47;;;;;;;6.48;77.81;95400.34;4365006;32;20276;-53
2022/12/06 11:09:48;;;;;;;6.13;1.43;;;;;;;6.57;78.22;95397.97;4331140;32;20310;-54
2022/12/06 11:12:28;;;;;;;1.30;1.30;;;;;;;6.54;78.49;95394.03;4361508;32;20315;-54
2022/12/06 11:15:19;;;;;;;0.63;0.63;;;;;;;6.51;79.23;95389.28;4354952;32;20291;-52
2022/12/06 11:17:56;;;;;;;1.03;0.70;;;;;;;6.29;80.42;95383.50;4364926;32;20284;-58
2022/12/06 11:20:29;;;;;;;0.97;0.97;;;;;;;6.31;80.96;95384.81;4337776;32;20368;-53
2022/12/06 11:23:19;;;;;;;1.03;1.00;;;;;;;6.43;80.28;95381.94;4352969;32;20300;-55
2022/12/06 11:26:23;;;;;;;1.07;1.07;;;;;;;6.68;79.64;95379.22;4351791;32;20326;-55
2022/12/06 11:29:04;;;;;;;7.30;0.97;;;;;;;6.47;79.26;95382.97;4356456;32;20336;-52
2022/12/06 11:31:44;;;;;;;0.83;0.83;;;;;;;6.70;78.50;95387.66;4370547;32;20337;-57
2022/12/06 11:34:21;;;;;;;1.57;1.47;;;;;;;6.53;78.40;95397.72;4365519;32;20288;-56
2022/12/06 11:36:49;;;;;;;1.73;1.07;;;;;;;6.07;79.89;95379.28;4327741;32;20368;-55
2022/12/06 11:39:22;;;;;;;0.20;0.20;;;;;;;5.96;81.12;95382.97;4354638;32;20285;-54
2022/12/06 11:41:50;;;;;;;0.70;0.70;;;;;;;6.06;80.97;95380.34;4363285;32;20394;-56
2022/12/06 11:44:21;;;;;;;1.93;1.83;;;;;;;6.38;79.50;95374.03;4362548;32;20323;-56
2022/12/06 11:46:56;;;;;;;1.90;0.93;;;;;;;6.68;77.75;95373.16;4374677;32;20375;-52
2022/12/06 11:49:36;;;;;;;1.80;1.23;;;;;;;6.62;77.81;95372.41;4361011;32;20353;-50
2022/12/06 11:52:19;;;;;;;1.47;1.37;;;;;;;6.43;78.35;95366.13;4355794;32;20344;-53
2022/12/06 11:55:00;;;;;;;0.67;0.57;;;;;;;6.02;80.39;95363.50;4346900;32;20273;-53
2022/12/06 11:57:33;;;;;;;0.70;0.70;;;;;;;6.35;78.89;95390.34;4354746;32;20328;-54
2022/12/06 12:00:19;;;;;;;0.77;0.77;;;;;;;6.32;79.07;95388.25;4359940;32;20292;-54
2022/12/06 12:02:48;;;;;;;1.10;1.10;;;;;;;6.37;79.86;95389.03;4383881;32;20294;-51
2022/12/06 12:05:20;;;;;;;0.63;0.63;;;;;;;6.28;79.35;95398.50;4361252;32;20367;-53
2022/12/06 12:08:03;;;;;;;0.63;0.63;;;;;;;6.12;80.83;95392.47;4365528;32;20320;-54
2022/12/06 12:10:35;;;;;;;0.40;0.40;;;;;;;6.09;80.64;95387.72;4338917;32;20652;-48
2022/12/06 12:13:43;;;;;;;0.43;0.43;;;;;;;6.10;80.26;95389.28;4348796;32;20321;-52
2022/12/06 12:16:19;;;;;;;0.70;0.70;;;;;;;6.02;80.84;95387.22;4365163;32;20277;-54
2022/12/06 12:19:04;;;;;;;0.40;0.40;;;;;;;6.02;80.02;95379.31;4394969;32;20378;-53
2022/12/06 12:21:40;;;;;;;0.57;0.57;;;;;;;6.02;80.49;95381.94;4345023;32;20344;-51
2022/12/06 12:25:03;;;;;;;0.73;0.73;;;;;;;6.23;79.86;95377.47;4372689;32;20313;-53
2022/12/06 12:27:39;;;;;;;0.80;0.80;;;;;;;6.00;79.39;95378.78;4302121;33;20279;-52
2022/12/06 12:30:33;;;;;;;0.50;0.50;;;;;;;5.98;80.05;95382.72;4367560;32;20351;-53
2022/12/06 12:33:14;;;;;;;0.40;0.40;;;;;;;6.00;80.40;95376.16;4369602;32;20316;-58
2022/12/06 12:36:09;;;;;;;0.67;0.67;;;;;;;5.87;81.52;95380.03;4328246;32;20276;-54